createdAt,value
2023-01-20T00:01:46.497Z,3.45
2023-01-20T00:04:15.615Z,3.50
2023-01-20T00:06:42.536Z,3.52
2023-01-20T00:09:17.874Z,3.24
2023-01-20T00:11:49.953Z,2.86
2023-01-20T00:14:19.212Z,3.01
2023-01-20T00:16:46.127Z,2.83
2023-01-20T00:19:18.173Z,2.84
2023-01-20T00:21:45.132Z,2.82
2023-01-20T00:24:14.551Z,2.83
2023-01-20T00:26:41.489Z,2.92
2023-01-20T00:29:09.297Z,3.10
2023-01-20T00:31:36.518Z,3.25
2023-01-20T00:34:06.215Z,3.56
2023-01-20T00:36:34.076Z,3.53
2023-01-20T00:39:06.737Z,3.42
2023-01-20T00:41:34.022Z,3.48
2023-01-20T00:44:03.175Z,3.55
2023-01-20T00:46:32.539Z,3.41
2023-01-20T00:49:01.508Z,3.55
2023-01-20T00:51:28.499Z,3.18
2023-01-20T00:53:58.411Z,3.30
2023-01-20T00:56:25.358Z,3.22
2023-01-20T00:58:55.338Z,3.16
2023-01-20T01:01:23.623Z,3.22
2023-01-20T01:03:54.580Z,3.29
2023-01-20T01:06:23.351Z,3.33
2023-01-20T01:08:50.284Z,3.60
2023-01-20T01:11:22.052Z,3.42
2023-01-20T01:13:51.903Z,3.63
2023-01-20T01:16:19.035Z,3.57
2023-01-20T01:18:46.086Z,3.37
2023-01-20T01:21:16.507Z,3.54
2023-01-20T01:23:46.258Z,3.69
2023-01-20T01:26:13.675Z,3.69
2023-01-20T01:28:45.605Z,3.43
2023-01-20T01:31:17.081Z,3.53
2023-01-20T01:33:44.124Z,3.66
2023-01-20T01:36:28.631Z,3.59
2023-01-20T01:38:57.685Z,3.50
2023-01-20T01:41:26.596Z,3.51
2023-01-20T01:44:12.807Z,3.46
2023-01-20T01:46:40.847Z,3.43
2023-01-20T01:49:23.148Z,3.25
2023-01-20T01:52:06.360Z,3.63
2023-01-20T01:54:41.602Z,3.80
2023-01-20T01:57:11.617Z,3.61
2023-01-20T01:59:38.962Z,3.49
2023-01-20T02:02:06.057Z,3.35
2023-01-20T02:04:35.019Z,3.23
2023-01-20T02:07:11.576Z,3.17
2023-01-20T02:09:39.267Z,3.19
2023-01-20T02:12:13.000Z,3.13
2023-01-20T02:14:52.721Z,3.21
2023-01-20T02:17:38.571Z,3.18
2023-01-20T02:20:46.008Z,3.26
2023-01-20T02:23:42.535Z,3.20
2023-01-20T02:26:56.013Z,3.28
2023-01-20T02:29:44.844Z,3.22
2023-01-20T02:32:29.546Z,3.20
2023-01-20T02:35:09.206Z,3.14
2023-01-20T02:38:28.922Z,3.32
2023-01-20T02:41:10.718Z,3.52
2023-01-20T02:44:22.379Z,3.80
2023-01-20T02:47:02.318Z,3.65
2023-01-20T02:49:46.793Z,3.51
2023-01-20T02:52:25.373Z,3.61
2023-01-20T02:54:56.567Z,3.58
2023-01-20T02:57:35.819Z,3.56
2023-01-20T03:00:24.855Z,3.25
2023-01-20T03:03:03.347Z,3.46
2023-01-20T03:05:40.815Z,3.45
2023-01-20T03:08:13.987Z,3.50
2023-01-20T03:10:42.947Z,3.39
2023-01-20T03:13:31.910Z,3.16
2023-01-20T03:16:05.379Z,3.23
2023-01-20T03:18:36.509Z,3.44
2023-01-20T03:21:05.659Z,3.26
2023-01-20T03:23:40.903Z,3.02
2023-01-20T03:26:12.155Z,3.06
2023-01-20T03:28:41.391Z,3.19
2023-01-20T03:31:30.950Z,3.04
2023-01-20T03:34:01.825Z,3.42
2023-01-20T03:36:30.774Z,3.04
2023-01-20T03:38:59.462Z,3.28
2023-01-20T03:42:00.115Z,3.51
2023-01-20T03:44:57.219Z,3.38
2023-01-20T03:47:46.602Z,2.95
2023-01-20T03:50:19.298Z,2.77
2023-01-20T03:52:53.181Z,2.93
2023-01-20T03:55:28.952Z,2.92
2023-01-20T03:58:04.999Z,2.96
2023-01-20T04:00:39.935Z,2.86
2023-01-20T04:03:19.447Z,2.88
2023-01-20T04:05:48.291Z,2.89
2023-01-20T04:08:20.618Z,2.93
2023-01-20T04:10:50.144Z,3.20
2023-01-20T04:13:17.171Z,3.35
2023-01-20T04:15:45.903Z,3.39
2023-01-20T04:18:21.291Z,3.40
2023-01-20T04:20:53.300Z,3.09
2023-01-20T04:23:24.422Z,3.23
2023-01-20T04:25:51.314Z,3.56
2023-01-20T04:28:18.203Z,3.67
2023-01-20T04:30:45.176Z,3.64
2023-01-20T04:33:12.090Z,3.83
2023-01-20T04:35:41.965Z,3.99
2023-01-20T04:38:14.832Z,3.81
2023-01-20T04:40:41.895Z,3.79
2023-01-20T04:43:12.102Z,3.85
2023-01-20T04:45:43.827Z,4.05
2023-01-20T04:48:10.884Z,3.98
2023-01-20T04:50:41.750Z,3.80
2023-01-20T04:53:13.760Z,3.77
2023-01-20T04:55:40.679Z,3.65
2023-01-20T04:58:10.674Z,3.60
2023-01-20T05:00:37.780Z,3.82
2023-01-20T05:03:07.942Z,3.29
2023-01-20T05:05:37.218Z,3.27
2023-01-20T05:08:06.312Z,3.39
2023-01-20T05:10:34.572Z,3.54
2023-01-20T05:13:01.716Z,3.52
2023-01-20T05:15:28.691Z,3.55
2023-01-20T05:17:55.620Z,3.21
2023-01-20T05:20:22.521Z,3.09
2023-01-20T05:22:54.011Z,2.51
2023-01-20T05:25:20.881Z,3.01
2023-01-20T05:27:50.874Z,3.35
2023-01-20T05:30:18.000Z,3.62
2023-01-20T05:32:56.974Z,3.70
2023-01-20T05:35:23.910Z,3.89
2023-01-20T05:37:54.747Z,3.70
2023-01-20T05:40:22.439Z,3.20
2023-01-20T05:42:51.887Z,2.98
2023-01-20T05:45:18.726Z,3.12
2023-01-20T05:47:45.657Z,3.27
2023-01-20T05:50:15.056Z,3.25
2023-01-20T05:52:49.317Z,3.53
2023-01-20T05:55:16.968Z,3.67
2023-01-20T05:57:44.221Z,3.62
2023-01-20T06:00:15.042Z,2.96
2023-01-20T06:02:42.319Z,3.03
2023-01-20T06:05:09.577Z,2.95
2023-01-20T06:07:39.038Z,2.56
2023-01-20T06:10:08.645Z,2.55
2023-01-20T06:12:35.665Z,2.49
2023-01-20T06:15:07.640Z,2.80
2023-01-20T06:17:37.073Z,2.58
2023-01-20T06:20:06.592Z,2.28
2023-01-20T06:22:37.961Z,2.40
2023-01-20T06:25:05.442Z,2.75
2023-01-20T06:27:32.507Z,2.78
2023-01-20T06:30:04.030Z,3.11
2023-01-20T06:32:31.134Z,3.39
2023-01-20T06:34:57.968Z,3.68
2023-01-20T06:37:24.898Z,3.88
2023-01-20T06:39:51.741Z,3.92
2023-01-20T06:42:18.742Z,3.64
2023-01-20T06:44:45.644Z,3.83
2023-01-20T06:47:14.889Z,3.90
2023-01-20T06:49:45.464Z,3.81
2023-01-20T06:52:12.375Z,3.63
2023-01-20T06:54:41.610Z,3.19
2023-01-20T06:57:11.012Z,3.29
2023-01-20T06:59:40.035Z,3.52
2023-01-20T07:02:12.266Z,3.32
2023-01-20T07:04:39.355Z,3.26
2023-01-20T07:07:12.936Z,3.12
2023-01-20T07:09:40.036Z,2.84
2023-01-20T07:12:10.010Z,3.07
2023-01-20T07:14:41.575Z,3.18
2023-01-20T07:17:14.611Z,3.09
2023-01-20T07:19:46.077Z,3.17
2023-01-20T07:22:15.277Z,3.59
2023-01-20T07:24:42.161Z,3.69
2023-01-20T07:27:15.060Z,3.58
2023-01-20T07:29:44.268Z,3.62
2023-01-20T07:32:13.635Z,3.58
2023-01-20T07:34:40.469Z,3.59
2023-01-20T07:37:07.439Z,3.62
2023-01-20T07:39:36.234Z,3.42
2023-01-20T07:42:03.342Z,3.74
2023-01-20T07:44:33.087Z,3.18
2023-01-20T07:47:00.152Z,2.56
2023-01-20T07:49:31.680Z,2.63
2023-01-20T07:51:58.768Z,2.62
2023-01-20T07:54:25.867Z,2.49
2023-01-20T07:56:52.823Z,2.87
2023-01-20T07:59:22.240Z,3.24
2023-01-20T08:01:49.301Z,3.41
2023-01-20T08:04:18.009Z,3.34
2023-01-20T08:06:49.344Z,3.51
2023-01-20T08:09:16.348Z,3.64
2023-01-20T08:11:43.331Z,3.69
2023-01-20T08:14:14.128Z,3.63
2023-01-20T08:16:41.210Z,3.72
2023-01-20T08:19:08.250Z,3.88
2023-01-20T08:21:36.391Z,4.02
2023-01-20T08:24:08.945Z,3.77
2023-01-20T08:26:39.424Z,3.81
2023-01-20T08:29:10.639Z,3.85
2023-01-20T08:31:38.063Z,3.43
2023-01-20T08:34:06.525Z,3.35
2023-01-20T08:36:36.805Z,3.47
2023-01-20T08:39:08.687Z,3.43
2023-01-20T08:41:38.829Z,3.62
2023-01-20T08:44:07.567Z,3.33
2023-01-20T08:46:41.939Z,3.42
2023-01-20T08:49:16.212Z,3.02
2023-01-20T08:51:44.919Z,3.18
2023-01-20T08:54:12.164Z,3.12
2023-01-20T08:56:39.680Z,3.22
2023-01-20T08:59:07.122Z,3.74
2023-01-20T09:01:38.348Z,3.75
2023-01-20T09:04:06.979Z,3.92
2023-01-20T09:06:43.803Z,3.66
2023-01-20T09:09:15.479Z,3.09
2023-01-20T09:11:50.491Z,3.05
2023-01-20T09:14:22.603Z,3.01
2023-01-20T09:16:54.645Z,3.19
2023-01-20T09:19:24.191Z,3.32
2023-01-20T09:21:51.246Z,3.36
2023-01-20T09:24:18.326Z,3.03
2023-01-20T09:26:45.461Z,3.13
2023-01-20T09:29:18.771Z,3.28
2023-01-20T09:31:54.061Z,3.44
2023-01-20T09:34:24.481Z,3.48
2023-01-20T09:36:57.995Z,3.93
2023-01-20T09:39:44.213Z,4.20
2023-01-20T09:43:08.256Z,4.26
2023-01-20T09:45:48.858Z,4.20
2023-01-20T09:49:05.384Z,4.27
2023-01-20T09:52:20.241Z,3.94
2023-01-20T09:55:26.478Z,3.97
2023-01-20T09:58:25.592Z,4.35
2023-01-20T10:01:35.414Z,4.63
2023-01-20T10:04:24.400Z,4.76
2023-01-20T10:06:57.400Z,4.78
2023-01-20T10:09:47.852Z,4.52
2023-01-20T10:12:37.208Z,4.41
2023-01-20T10:15:21.497Z,4.86
2023-01-20T10:18:19.391Z,5.18
2023-01-20T10:21:06.818Z,5.39
2023-01-20T10:24:00.616Z,5.89
2023-01-20T10:26:56.087Z,7.22
2023-01-20T10:29:34.489Z,9.65
2023-01-20T10:32:06.831Z,12.28
2023-01-20T10:34:45.607Z,14.73
2023-01-20T10:37:15.245Z,16.69
2023-01-20T10:39:55.008Z,18.74
2023-01-20T10:42:22.947Z,19.83
2023-01-20T10:44:51.373Z,20.58
2023-01-20T10:47:26.621Z,19.79
2023-01-20T10:50:07.847Z,16.98
2023-01-20T10:52:51.219Z,15.28
2023-01-20T10:55:58.429Z,13.43
2023-01-20T10:58:33.870Z,13.22
2023-01-20T11:01:06.907Z,13.95
2023-01-20T11:03:44.413Z,15.01
2023-01-20T11:06:23.442Z,15.05
2023-01-20T11:08:50.907Z,14.23
2023-01-20T11:11:25.641Z,12.75
2023-01-20T11:13:57.417Z,13.03
2023-01-20T11:16:31.719Z,12.64
2023-01-20T11:18:58.726Z,12.01
2023-01-20T11:21:29.331Z,12.33
2023-01-20T11:24:00.968Z,12.78
2023-01-20T11:26:33.590Z,13.06
2023-01-20T11:29:29.440Z,12.47
2023-01-20T11:31:59.856Z,11.57
2023-01-20T11:34:35.662Z,10.91
2023-01-20T11:37:05.777Z,10.31
2023-01-20T11:39:37.108Z,9.86
2023-01-20T11:42:26.074Z,9.57
2023-01-20T11:45:20.218Z,9.64
2023-01-20T11:48:16.072Z,9.45
2023-01-20T11:50:58.565Z,9.05
2023-01-20T11:53:33.102Z,9.70
2023-01-20T11:56:02.328Z,10.00
2023-01-20T11:58:50.864Z,10.27
2023-01-20T12:01:30.797Z,10.77
2023-01-20T12:04:20.205Z,11.11
2023-01-20T12:06:56.875Z,10.74
2023-01-20T12:09:35.438Z,9.96
2023-01-20T12:12:25.699Z,9.59
2023-01-20T12:15:02.918Z,10.22
2023-01-20T12:17:41.479Z,10.68
2023-01-20T12:20:35.423Z,11.05
2023-01-20T12:23:27.978Z,11.28
2023-01-20T12:26:06.291Z,11.99
2023-01-20T12:28:56.289Z,15.16
2023-01-20T12:31:24.974Z,17.39
2023-01-20T12:34:05.006Z,19.19
2023-01-20T12:37:11.659Z,19.59
2023-01-20T12:39:59.662Z,19.20
2023-01-20T12:42:54.335Z,20.24
2023-01-20T12:46:02.377Z,22.23
2023-01-20T12:49:02.740Z,21.86
2023-01-20T12:51:59.135Z,23.28
2023-01-20T12:54:55.030Z,22.62
2023-01-20T12:57:33.295Z,22.49
2023-01-20T13:00:45.536Z,22.84
2023-01-20T13:04:02.473Z,22.32
2023-01-20T13:06:36.539Z,20.12
2023-01-20T13:09:37.115Z,17.73
2023-01-20T13:12:31.363Z,18.50
2023-01-20T13:15:19.780Z,19.62
2023-01-20T13:18:21.898Z,19.58
2023-01-20T13:20:49.819Z,18.00
2023-01-20T13:23:24.462Z,17.86
2023-01-20T13:25:52.648Z,18.32
2023-01-20T13:28:30.607Z,18.92
2023-01-20T13:31:00.404Z,20.28
2023-01-20T13:33:38.693Z,20.55
2023-01-20T13:36:26.228Z,20.10
2023-01-20T13:39:40.411Z,19.36
2023-01-20T13:42:29.280Z,20.04
2023-01-20T13:45:11.618Z,19.79
2023-01-20T13:48:10.967Z,19.44
2023-01-20T13:50:47.640Z,17.90
2023-01-20T13:53:28.326Z,16.55
2023-01-20T13:55:58.819Z,14.23
2023-01-20T13:58:33.593Z,12.84
2023-01-20T14:01:14.904Z,12.87
2023-01-20T14:03:44.533Z,12.07
2023-01-20T14:06:14.414Z,11.38
2023-01-20T14:08:51.245Z,10.87
2023-01-20T14:11:21.791Z,10.94
2023-01-20T14:13:58.475Z,10.90
2023-01-20T14:16:34.643Z,10.53
2023-01-20T14:19:34.250Z,10.33
2023-01-20T14:22:37.085Z,10.01
2023-01-20T14:25:04.516Z,10.06
2023-01-20T14:27:41.787Z,9.68
2023-01-20T14:30:27.422Z,9.47
2023-01-20T14:32:54.802Z,9.41
2023-01-20T14:35:31.274Z,9.20
2023-01-20T14:38:03.995Z,8.91
2023-01-20T14:40:35.375Z,9.15
2023-01-20T14:43:22.476Z,8.86
2023-01-20T14:45:54.675Z,8.74
2023-01-20T14:48:33.963Z,8.74
2023-01-20T14:51:06.291Z,8.48
2023-01-20T14:53:35.459Z,8.40
2023-01-20T14:56:09.983Z,8.27
2023-01-20T14:58:46.626Z,8.35
2023-01-20T15:01:25.719Z,8.31
2023-01-20T15:04:01.892Z,8.38
2023-01-20T15:06:28.926Z,8.22
2023-01-20T15:09:06.492Z,8.03
2023-01-20T15:11:35.573Z,8.11
2023-01-20T15:14:02.560Z,8.09
2023-01-20T15:16:47.578Z,7.89
2023-01-20T15:19:18.385Z,7.95
2023-01-20T15:21:56.578Z,7.86
2023-01-20T15:24:32.792Z,7.79
2023-01-20T15:27:04.243Z,7.49
2023-01-20T15:29:36.741Z,7.45
2023-01-20T15:32:12.720Z,7.39
2023-01-20T15:34:39.652Z,7.50
2023-01-20T15:37:18.717Z,7.13
2023-01-20T15:39:48.187Z,7.06
2023-01-20T15:42:18.935Z,7.15
2023-01-20T15:44:46.388Z,6.86
2023-01-20T15:47:31.110Z,6.92
2023-01-20T15:49:58.779Z,6.86
2023-01-20T15:52:28.169Z,6.73
2023-01-20T15:54:55.331Z,6.70
2023-01-20T15:57:22.246Z,6.54
2023-01-20T15:59:50.225Z,6.48
2023-01-20T16:02:23.173Z,6.29
2023-01-20T16:04:50.483Z,6.26
2023-01-20T16:07:21.670Z,6.22
2023-01-20T16:09:49.191Z,6.39
2023-01-20T16:12:18.341Z,6.18
2023-01-20T16:14:47.866Z,6.33
2023-01-20T16:17:24.824Z,6.26
2023-01-20T16:19:51.756Z,6.29
2023-01-20T16:22:18.885Z,6.11
2023-01-20T16:24:51.388Z,6.12
2023-01-20T16:27:22.443Z,6.06
2023-01-20T16:29:49.919Z,5.86
2023-01-20T16:32:22.232Z,5.81
2023-01-20T16:34:52.157Z,5.81
2023-01-20T16:37:21.572Z,5.74
2023-01-20T16:39:52.983Z,5.53
2023-01-20T16:42:29.770Z,5.56
2023-01-20T16:44:58.848Z,5.58
2023-01-20T16:47:25.764Z,5.45
2023-01-20T16:49:55.804Z,5.30
2023-01-20T16:52:22.802Z,5.09
2023-01-20T16:54:49.676Z,5.09
2023-01-20T16:57:16.569Z,4.85
2023-01-20T16:59:43.564Z,4.75
2023-01-20T17:02:12.116Z,4.89
2023-01-20T17:04:41.961Z,4.63
2023-01-20T17:07:08.999Z,4.65
2023-01-20T17:09:38.549Z,4.85
2023-01-20T17:12:05.691Z,4.70
2023-01-20T17:14:34.888Z,4.78
2023-01-20T17:17:03.967Z,4.81
2023-01-20T17:19:33.394Z,4.50
2023-01-20T17:22:00.519Z,4.59
2023-01-20T17:24:27.609Z,4.69
2023-01-20T17:26:54.720Z,4.63
2023-01-20T17:29:21.955Z,4.81
2023-01-20T17:31:49.133Z,4.93
2023-01-20T17:34:18.593Z,4.93
2023-01-20T17:36:48.225Z,4.91
2023-01-20T17:39:17.682Z,5.03
2023-01-20T17:41:44.588Z,5.06
2023-01-20T17:44:13.308Z,5.00
2023-01-20T17:46:40.318Z,5.01
2023-01-20T17:49:09.955Z,4.93
2023-01-20T17:51:37.103Z,4.86
2023-01-20T17:54:06.689Z,4.80
2023-01-20T17:56:35.114Z,4.76
2023-01-20T17:59:05.793Z,4.88
2023-01-20T18:01:35.950Z,4.94
2023-01-20T18:04:06.424Z,4.88
2023-01-20T18:06:35.343Z,4.73
2023-01-20T18:09:07.839Z,4.57
2023-01-20T18:11:37.657Z,4.58
2023-01-20T18:14:06.807Z,4.55
2023-01-20T18:16:38.934Z,4.37
2023-01-20T18:19:09.237Z,4.18
2023-01-20T18:21:38.396Z,4.04
2023-01-20T18:24:07.673Z,4.06
2023-01-20T18:26:37.753Z,3.90
2023-01-20T18:29:14.889Z,3.88
2023-01-20T18:31:46.769Z,3.95
2023-01-20T18:34:20.732Z,3.72
2023-01-20T18:36:50.514Z,3.50
2023-01-20T18:39:24.147Z,3.68
2023-01-20T18:41:52.183Z,3.76
2023-01-20T18:44:20.175Z,3.75
2023-01-20T18:46:47.236Z,3.81
2023-01-20T18:49:17.884Z,3.64
2023-01-20T18:51:49.776Z,3.63
2023-01-20T18:54:20.951Z,3.66
2023-01-20T18:56:48.182Z,3.54
2023-01-20T18:59:15.367Z,3.47
2023-01-20T19:01:44.829Z,3.55
2023-01-20T19:04:13.632Z,3.58
2023-01-20T19:06:45.508Z,3.60
2023-01-20T19:09:35.080Z,3.44
2023-01-20T19:12:04.781Z,3.67
2023-01-20T19:14:31.790Z,3.76
2023-01-20T19:16:58.808Z,3.78
2023-01-20T19:19:28.418Z,4.01
2023-01-20T19:21:55.251Z,4.07
2023-01-20T19:24:22.450Z,4.04
2023-01-20T19:26:49.832Z,4.13
2023-01-20T19:29:18.021Z,4.16
2023-01-20T19:31:45.228Z,4.25
2023-01-20T19:34:12.877Z,4.26
2023-01-20T19:36:39.996Z,4.36
2023-01-20T19:39:09.640Z,4.31
2023-01-20T19:41:38.798Z,4.32
2023-01-20T19:44:10.916Z,4.07
2023-01-20T19:46:39.340Z,4.00
2023-01-20T19:49:11.467Z,3.85
2023-01-20T19:51:41.869Z,4.04
2023-01-20T19:54:17.343Z,4.17
2023-01-20T19:56:44.665Z,4.22
2023-01-20T19:59:17.029Z,4.02
2023-01-20T20:01:47.236Z,4.14
2023-01-20T20:04:14.563Z,4.27
2023-01-20T20:06:48.508Z,4.19
2023-01-20T20:09:23.334Z,4.04
2023-01-20T20:11:50.679Z,4.03
2023-01-20T20:14:20.647Z,3.91
2023-01-20T20:16:48.854Z,3.82
2023-01-20T20:19:19.985Z,3.74
2023-01-20T20:21:46.956Z,3.67
2023-01-20T20:24:18.279Z,3.63
2023-01-20T20:26:49.508Z,3.70
2023-01-20T20:29:19.027Z,3.63
2023-01-20T20:31:46.891Z,3.61
2023-01-20T20:34:17.497Z,3.36
2023-01-20T20:36:45.061Z,3.66
2023-01-20T20:39:19.711Z,3.69
2023-01-20T20:41:47.056Z,3.91
2023-01-20T20:44:14.921Z,3.84
2023-01-20T20:46:41.793Z,3.94
2023-01-20T20:49:15.473Z,3.75
2023-01-20T20:51:45.111Z,3.83
2023-01-20T20:54:20.234Z,3.63
2023-01-20T20:56:47.147Z,3.50
2023-01-20T20:59:14.345Z,3.71
2023-01-20T21:01:41.357Z,3.64
2023-01-20T21:04:08.745Z,3.67
2023-01-20T21:06:35.697Z,3.67
2023-01-20T21:09:03.138Z,3.70
2023-01-20T21:11:30.290Z,3.70
2023-01-20T21:13:57.554Z,3.61
2023-01-20T21:16:26.132Z,3.81
2023-01-20T21:18:56.398Z,3.90
2023-01-20T21:21:24.034Z,3.72
2023-01-20T21:23:54.634Z,3.76
2023-01-20T21:26:22.972Z,3.58
2023-01-20T21:28:52.135Z,3.84
2023-01-20T21:31:26.809Z,3.79
2023-01-20T21:33:58.291Z,3.64
2023-01-20T21:36:27.187Z,3.83
2023-01-20T21:38:54.559Z,3.97
2023-01-20T21:41:21.647Z,4.02
2023-01-20T21:44:07.750Z,4.18
2023-01-20T21:46:40.277Z,4.13
2023-01-20T21:49:27.765Z,4.17
2023-01-20T21:52:14.372Z,4.01
2023-01-20T21:54:41.780Z,4.18
2023-01-20T21:57:11.109Z,4.09
2023-01-20T21:59:38.198Z,4.01
2023-01-20T22:02:08.407Z,4.12
2023-01-20T22:04:35.368Z,4.19
2023-01-20T22:07:04.788Z,4.05
2023-01-20T22:09:34.048Z,3.94
2023-01-20T22:12:00.899Z,3.99
2023-01-20T22:14:32.338Z,4.19
2023-01-20T22:17:05.467Z,4.22
2023-01-20T22:19:35.315Z,4.26
2023-01-20T22:22:06.964Z,4.05
2023-01-20T22:24:36.117Z,4.15
2023-01-20T22:27:03.147Z,4.24
2023-01-20T22:29:30.445Z,4.23
2023-01-20T22:31:59.438Z,4.25
2023-01-20T22:34:29.313Z,4.33
2023-01-20T22:36:57.666Z,4.39
2023-01-20T22:39:24.550Z,4.24
2023-01-20T22:41:51.407Z,4.23
2023-01-20T22:44:18.491Z,4.27
2023-01-20T22:46:47.677Z,4.39
2023-01-20T22:49:17.225Z,4.47
2023-01-20T22:51:46.880Z,4.47
2023-01-20T22:54:13.900Z,4.33
2023-01-20T22:56:40.814Z,4.37
2023-01-20T22:59:13.598Z,4.50
2023-01-20T23:01:40.681Z,4.46
2023-01-20T23:04:10.076Z,4.46
2023-01-20T23:06:42.007Z,4.47
2023-01-20T23:09:14.437Z,4.38
2023-01-20T23:11:41.742Z,4.21
2023-01-20T23:14:12.670Z,4.35
2023-01-20T23:16:43.341Z,4.38
2023-01-20T23:19:10.725Z,4.52
2023-01-20T23:21:37.660Z,4.41
2023-01-20T23:24:09.033Z,4.46
2023-01-20T23:26:38.544Z,4.44
2023-01-20T23:29:08.049Z,4.37
2023-01-20T23:31:38.159Z,4.17
2023-01-20T23:34:05.188Z,4.06
2023-01-20T23:36:34.954Z,4.17
2023-01-20T23:39:04.464Z,4.39
2023-01-20T23:41:31.543Z,4.51
2023-01-20T23:44:05.467Z,4.66
2023-01-20T23:46:32.390Z,4.63
2023-01-20T23:48:59.226Z,4.51
2023-01-20T23:51:26.282Z,4.55
2023-01-20T23:53:58.828Z,4.58
2023-01-20T23:56:26.066Z,4.52
2023-01-20T23:58:55.427Z,4.58
